Time;durP1;ratioP1;P1;durP2;ratioP2;P2;SDS_P1;SDS_P2;PMS_P1;PMS_P2;Temp;Humidity;BMP_temperature;BMP_pressure;BME280_temperature;BME280_humidity;BME280_pressure;Samples;Min_cycle;Max_cycle;Signal;HPM_P1;HPM_P2
2023/01/15 00:01:05;;;;;;;8.43;3.58;;;;;;;12.65;59.75;98434.38;5133414;27;20019;-46
2023/01/15 00:03:31;;;;;;;16.08;5.88;;;;;;;12.55;61.21;98426.19;5132173;27;20054;-46
2023/01/15 00:06:03;;;;;;;7.65;4.53;;;;;;;12.50;59.20;98440.00;5133590;27;20027;-46
2023/01/15 00:08:29;;;;;;;9.48;3.58;;;;;;;12.44;60.96;98435.63;5133274;27;20084;-46
2023/01/15 00:10:55;;;;;;;12.68;5.60;;;;;;;12.42;60.06;98439.50;5133322;27;20378;-46
2023/01/15 00:13:21;;;;;;;10.43;4.07;;;;;;;12.47;61.82;98445.69;5133342;27;20029;-46
2023/01/15 00:15:46;;;;;;;5.40;2.30;;;;;;;12.50;61.03;98447.09;5114850;27;20108;-46
2023/01/15 00:18:12;;;;;;;6.82;2.05;;;;;;;12.53;61.65;98463.25;5133285;27;20124;-46
2023/01/15 00:20:38;;;;;;;4.97;2.22;;;;;;;12.50;58.49;98460.25;5133168;27;20024;-46
2023/01/15 00:23:04;;;;;;;4.15;2.28;;;;;;;12.31;59.83;98449.69;5131586;27;20085;-47
2023/01/15 00:28:14;;;;;;;10.25;2.97;;;;;;;12.38;59.66;98450.44;5132996;27;20613;-46
2023/01/15 00:30:41;;;;;;;12.05;4.00;;;;;;;12.74;58.69;98448.06;5133045;27;20141;-47
2023/01/15 00:33:07;;;;;;;5.57;2.40;;;;;;;12.93;56.22;98420.66;5131814;27;20047;-46
2023/01/15 00:35:33;;;;;;;7.07;2.20;;;;;;;13.04;55.28;98419.13;5131598;27;20082;-47
2023/01/15 00:37:59;;;;;;;8.10;1.83;;;;;;;13.12;53.94;98416.19;5131537;27;20054;-46
2023/01/15 00:40:24;;;;;;;9.05;3.70;;;;;;;13.14;54.68;98410.69;5132821;27;20065;-47
2023/01/15 00:42:50;;;;;;;8.15;2.85;;;;;;;13.14;53.32;98400.16;5132835;27;20030;-46
2023/01/15 00:45:16;;;;;;;7.75;2.80;;;;;;;13.03;53.41;98393.78;5131491;27;20027;-46
2023/01/15 00:47:43;;;;;;;11.57;2.83;;;;;;;12.95;53.96;98386.22;5132779;27;20035;-46
2023/01/15 00:50:12;;;;;;;7.55;2.38;;;;;;;12.91;53.52;98391.09;5132731;27;20023;-46
2023/01/15 00:52:38;;;;;;;7.80;2.22;;;;;;;12.79;52.93;98398.16;5131597;28;20035;-46
2023/01/15 00:55:05;;;;;;;8.27;2.10;;;;;;;12.67;54.67;98407.81;5165312;27;20058;-46
2023/01/15 00:57:31;;;;;;;7.85;3.05;;;;;;;12.61;54.71;98403.44;5132771;27;20051;-47
2023/01/15 00:59:57;;;;;;;10.88;3.95;;;;;;;12.63;56.00;98410.09;5165997;27;20497;-47
2023/01/15 01:02:23;;;;;;;7.45;2.45;;;;;;;12.56;55.54;98417.28;5131310;28;20050;-46
2023/01/15 01:04:48;;;;;;;11.77;2.92;;;;;;;12.38;57.39;98426.75;5131521;28;20104;-47
2023/01/15 01:07:14;;;;;;;6.45;2.35;;;;;;;12.35;57.88;98431.66;5131594;28;20027;-46
2023/01/15 01:09:40;;;;;;;9.07;3.17;;;;;;;12.27;57.80;98432.72;5132550;27;20019;-47
2023/01/15 01:12:05;;;;;;;9.07;2.00;;;;;;;12.12;56.89;98443.59;5131256;28;20027;-46
2023/01/15 01:14:31;;;;;;;8.57;2.80;;;;;;;12.10;58.52;98421.97;5131272;28;20020;-46
2023/01/15 01:16:57;;;;;;;8.57;2.72;;;;;;;12.15;56.07;98422.13;5132523;27;20019;-47
2023/01/15 01:19:24;;;;;;;23.80;10.73;;;;;;;12.22;57.61;98414.19;5131191;28;20386;-47
2023/01/15 01:21:51;;;;;;;32.08;20.17;;;;;;;12.38;56.70;98391.75;5134026;27;20054;-47
2023/01/15 01:24:20;;;;;;;40.88;28.25;;;;;;;12.39;57.34;98373.13;5132704;27;20117;-47
2023/01/15 01:26:47;;;;;;;25.23;15.07;;;;;;;12.38;56.88;98376.75;5132437;27;20027;-47
2023/01/15 01:29:14;;;;;;;14.52;7.32;;;;;;;12.13;57.38;98353.16;5132366;27;20514;-46
2023/01/15 01:31:40;;;;;;;34.60;17.42;;;;;;;11.76;58.16;98341.75;5131039;28;20023;-46
2023/01/15 01:34:06;;;;;;;11.32;5.35;;;;;;;11.56;61.10;98355.06;5132415;27;20026;-46
2023/01/15 01:36:35;;;;;;;16.65;7.22;;;;;;;11.46;61.39;98352.91;5132299;27;20031;-46
2023/01/15 01:39:02;;;;;;;16.95;4.75;;;;;;;11.45;60.37;98332.09;5131292;28;20054;-46
2023/01/15 01:41:28;;;;;;;8.55;3.00;;;;;;;11.45;60.65;98332.09;5132660;27;20102;-46
2023/01/15 01:44:05;;;;;;;6.78;2.22;;;;;;;11.59;60.04;98339.66;5132256;27;20098;-47
2023/01/15 01:46:34;;;;;;;12.63;2.92;;;;;;;11.67;60.35;98329.88;5130968;28;20024;-46
2023/01/15 01:49:08;;;;;;;9.30;4.05;;;;;;;11.74;59.08;98318.28;5130815;28;20031;-47
2023/01/15 01:51:42;;;;;;;9.23;2.42;;;;;;;11.71;60.67;98344.19;5132238;27;20027;-47
2023/01/15 01:54:10;;;;;;;5.38;2.25;;;;;;;11.76;58.78;98342.53;5130899;28;20506;-47
2023/01/15 01:56:36;;;;;;;7.28;3.03;;;;;;;11.72;58.00;98341.38;5130805;28;20019;-46
2023/01/15 01:59:03;;;;;;;8.52;2.72;;;;;;;11.75;58.57;98329.59;5132464;27;20031;-47
2023/01/15 02:01:29;;;;;;;10.88;5.28;;;;;;;11.79;59.41;98347.38;5132111;28;20043;-47
2023/01/15 02:03:55;;;;;;;13.18;6.78;;;;;;;11.86;59.68;98354.41;5113719;28;20057;-47
2023/01/15 02:06:23;;;;;;;10.57;5.88;;;;;;;11.82;59.97;98329.56;5134705;27;20111;-47
2023/01/15 02:08:48;;;;;;;13.52;4.60;;;;;;;11.76;61.25;98320.72;5135668;27;20058;-47
2023/01/15 02:11:18;;;;;;;10.60;3.95;;;;;;;11.84;59.62;98314.38;5135727;27;20054;-46
2023/01/15 02:13:50;;;;;;;8.35;2.85;;;;;;;11.82;59.82;98309.31;5134325;27;20046;-46
2023/01/15 02:16:39;;;;;;;9.07;3.60;;;;;;;11.83;59.73;98296.97;5134308;27;20023;-46
2023/01/15 02:19:13;;;;;;;11.25;4.75;;;;;;;11.93;60.59;98295.50;5133932;27;20135;-47
2023/01/15 02:21:52;;;;;;;9.00;3.47;;;;;;;12.01;59.97;98307.53;5133973;27;20019;-47
2023/01/15 02:24:31;;;;;;;5.07;2.10;;;;;;;12.09;59.01;98296.75;5135524;27;20031;-47
2023/01/15 02:27:17;;;;;;;4.65;2.40;;;;;;;12.17;58.73;98275.41;5135417;27;20023;-47
2023/01/15 02:29:53;;;;;;;7.43;2.70;;;;;;;12.10;58.33;98294.91;5134033;27;20066;-47
2023/01/15 02:32:51;;;;;;;8.13;2.70;;;;;;;12.03;58.61;98286.28;5135329;27;20020;-46
2023/01/15 02:35:36;;;;;;;7.10;2.50;;;;;;;11.98;59.02;98302.72;5134573;27;20656;-46
2023/01/15 02:38:07;;;;;;;9.50;2.05;;;;;;;12.02;58.12;98322.31;5135308;27;20030;-47
2023/01/15 02:40:34;;;;;;;6.63;2.47;;;;;;;12.08;57.94;98310.13;5133898;27;20039;-46
2023/01/15 02:43:00;;;;;;;9.48;2.80;;;;;;;12.07;58.15;98308.50;5135069;27;20041;-47
2023/01/15 02:45:31;;;;;;;6.22;2.65;;;;;;;12.16;58.35;98315.88;5135046;27;20023;-47
2023/01/15 02:48:04;;;;;;;8.85;3.20;;;;;;;12.33;57.94;98299.50;5135022;27;20425;-47
2023/01/15 02:50:37;;;;;;;9.35;2.75;;;;;;;12.48;57.50;98299.91;5134941;27;20027;-47
2023/01/15 02:53:07;;;;;;;11.60;2.90;;;;;;;12.61;57.06;98287.59;5134964;27;20055;-47
2023/01/15 02:55:42;;;;;;;10.32;2.97;;;;;;;12.69;56.20;98317.06;5133611;27;20084;-47
2023/01/15 02:58:13;;;;;;;8.45;2.75;;;;;;;12.68;55.28;98309.41;5133501;27;20034;-47
2023/01/15 03:00:43;;;;;;;8.43;5.40;;;;;;;12.65;55.71;98313.25;5134817;27;20565;-47
2023/01/15 03:03:25;;;;;;;10.77;4.32;;;;;;;12.72;55.87;98329.00;5134738;27;20035;-47
2023/01/15 03:06:08;;;;;;;11.20;3.50;;;;;;;12.86;55.28;98321.69;5134693;27;20098;-47
2023/01/15 03:08:34;;;;;;;12.27;3.13;;;;;;;12.99;55.19;98324.94;5134588;27;20428;-47
2023/01/15 03:11:12;;;;;;;10.93;3.88;;;;;;;13.14;54.99;98329.81;5134522;27;20023;-47
2023/01/15 03:13:51;;;;;;;8.55;3.08;;;;;;;13.17;54.45;98313.53;5134551;27;20075;-47
2023/01/15 03:16:37;;;;;;;7.35;3.25;;;;;;;13.18;54.08;98335.44;5132915;27;20030;-47
2023/01/15 03:19:28;;;;;;;10.60;2.75;;;;;;;13.25;53.87;98324.78;5134303;27;20023;-47
2023/01/15 03:22:08;;;;;;;12.80;4.00;;;;;;;13.17;53.54;98318.81;5132890;27;20080;-47
2023/01/15 03:24:49;;;;;;;10.75;3.95;;;;;;;13.03;53.87;98304.22;5134344;27;20058;-47
2023/01/15 03:27:15;;;;;;;14.88;4.05;;;;;;;12.88;54.56;98320.47;5134279;27;20027;-47
2023/01/15 03:29:46;;;;;;;9.30;3.50;;;;;;;12.83;55.03;98291.34;5134097;27;20041;-47
2023/01/15 03:32:14;;;;;;;11.50;2.97;;;;;;;12.76;55.21;98301.97;5134205;27;20058;-47
2023/01/15 03:34:45;;;;;;;7.72;2.60;;;;;;;12.67;55.13;98298.03;5133948;27;20047;-47
2023/01/15 03:37:11;;;;;;;11.65;3.25;;;;;;;12.47;56.27;98292.25;5134302;27;20023;-47
2023/01/15 03:39:38;;;;;;;12.55;3.70;;;;;;;12.37;57.31;98300.66;5132782;27;20031;-47
2023/01/15 03:42:22;;;;;;;13.52;3.75;;;;;;;12.35;57.75;98315.88;5132587;27;20661;-47
2023/01/15 03:45:27;;;;;;;10.05;4.20;;;;;;;12.39;56.98;98295.97;5132674;27;20705;-47
2023/01/15 03:48:14;;;;;;;7.03;2.95;;;;;;;12.44;56.89;98293.50;5130669;27;20031;-47
2023/01/15 03:50:56;;;;;;;11.10;3.95;;;;;;;12.52;57.00;98274.75;5133759;27;20027;-47
2023/01/15 03:53:45;;;;;;;9.82;3.85;;;;;;;12.42;56.69;98279.75;5133888;27;20031;-47
2023/01/15 03:56:39;;;;;;;11.18;3.60;;;;;;;12.36;56.73;98267.50;5133993;27;20110;-47
2023/01/15 03:59:13;;;;;;;9.40;3.38;;;;;;;12.20;57.24;98292.56;5133866;27;20030;-47
2023/01/15 04:01:43;;;;;;;6.50;3.53;;;;;;;12.11;57.55;98291.25;5133672;27;20039;-47
2023/01/15 04:04:12;;;;;;;10.52;4.93;;;;;;;12.05;58.21;98282.41;5133566;27;20023;-47
2023/01/15 04:06:41;;;;;;;7.68;2.75;;;;;;;12.09;57.87;98280.13;5133475;27;20023;-46
2023/01/15 04:09:09;;;;;;;8.43;3.67;;;;;;;11.99;58.08;98278.84;5133334;27;20031;-47
2023/01/15 04:11:35;;;;;;;12.90;3.45;;;;;;;12.02;57.88;98267.06;5133402;27;20026;-47
2023/01/15 04:14:01;;;;;;;7.50;2.80;;;;;;;11.95;57.50;98276.84;5132053;27;20047;-47
2023/01/15 04:16:29;;;;;;;7.28;2.67;;;;;;;11.84;57.80;98274.94;5133582;27;20015;-47
2023/01/15 04:18:54;;;;;;;8.43;3.38;;;;;;;11.73;57.97;98260.66;5131941;27;20450;-46
2023/01/15 04:21:20;;;;;;;18.90;5.05;;;;;;;11.69;59.42;98241.09;5133223;27;20019;-46
2023/01/15 04:23:46;;;;;;;8.57;3.50;;;;;;;11.69;58.95;98255.06;5132899;27;20047;-47
2023/01/15 04:26:12;;;;;;;15.48;6.38;;;;;;;11.72;58.26;98214.38;5133189;27;20091;-47
2023/01/15 04:28:39;;;;;;;8.32;4.20;;;;;;;11.80;57.47;98233.28;5132143;27;20019;-46
2023/01/15 04:31:06;;;;;;;11.55;5.30;;;;;;;11.65;57.97;98219.72;5133056;27;20475;-47
2023/01/15 04:33:31;;;;;;;9.50;3.88;;;;;;;11.58;58.81;98205.84;5133093;27;20485;-47
2023/01/15 04:36:02;;;;;;;9.35;3.90;;;;;;;11.59;58.26;98204.84;5132988;27;20023;-47
2023/01/15 04:38:28;;;;;;;12.73;5.50;;;;;;;11.53;58.58;98189.91;5131651;27;20577;-46
2023/01/15 04:46:22;;;;;;;14.65;4.55;;;;;;;11.50;57.60;98190.34;5133175;27;20057;-46
2023/01/15 04:48:48;;;;;;;17.17;6.38;;;;;;;11.48;58.35;98203.72;5131456;27;20026;-47
2023/01/15 04:51:14;;;;;;;9.88;4.18;;;;;;;11.55;58.00;98182.59;5131471;27;20026;-47
2023/01/15 04:53:40;;;;;;;9.57;4.30;;;;;;;11.58;56.99;98174.31;5133102;27;20031;-47
2023/01/15 04:56:06;;;;;;;11.07;4.43;;;;;;;11.50;57.08;98157.00;5131369;28;20030;-47
2023/01/15 04:58:33;;;;;;;12.95;5.18;;;;;;;11.43;57.70;98176.47;5132774;27;20023;-47
2023/01/15 05:01:01;;;;;;;10.10;3.83;;;;;;;11.44;57.70;98178.91;5132779;27;20374;-47
2023/01/15 05:03:29;;;;;;;6.55;3.28;;;;;;;11.39;58.07;98187.44;5114666;28;20103;-47
2023/01/15 05:05:54;;;;;;;11.77;4.25;;;;;;;11.37;58.11;98189.47;5132648;27;20027;-47
2023/01/15 05:08:20;;;;;;;9.25;4.15;;;;;;;11.38;58.00;98177.94;5131318;28;20019;-47
2023/01/15 05:10:46;;;;;;;7.90;3.88;;;;;;;11.32;57.94;98175.38;5132521;28;20507;-47
2023/01/15 05:13:11;;;;;;;11.88;4.65;;;;;;;11.29;58.33;98153.00;5132808;27;20023;-47
2023/01/15 05:15:39;;;;;;;5.30;2.58;;;;;;;11.41;57.61;98187.22;5132442;28;20028;-47
2023/01/15 05:18:05;;;;;;;10.02;4.47;;;;;;;11.39;58.04;98158.53;5132826;27;20488;-47
2023/01/15 05:20:34;;;;;;;5.40;2.92;;;;;;;11.39;57.40;98174.31;5132764;27;20412;-47
2023/01/15 05:23:00;;;;;;;9.20;3.50;;;;;;;11.35;58.00;98191.53;5132279;27;20046;-46
2023/01/15 05:25:25;;;;;;;13.35;5.57;;;;;;;11.35;57.65;98194.16;5132442;27;20019;-47
2023/01/15 05:27:51;;;;;;;9.30;3.50;;;;;;;11.31;58.17;98155.41;5132528;27;20027;-46
2023/01/15 05:30:17;;;;;;;11.35;4.85;;;;;;;11.27;58.50;98180.47;5132349;27;20030;-47
2023/01/15 05:32:42;;;;;;;10.10;4.22;;;;;;;11.25;58.86;98180.72;5132421;27;20088;-46
2023/01/15 05:35:09;;;;;;;10.80;4.30;;;;;;;11.16;58.97;98168.88;5131038;28;20527;-47
2023/01/15 05:37:34;;;;;;;10.60;4.10;;;;;;;11.17;59.33;98173.91;5132348;27;20023;-47
2023/01/15 05:40:00;;;;;;;13.80;4.45;;;;;;;11.20;59.36;98191.06;5131629;27;20442;-47
2023/01/15 05:42:25;;;;;;;12.82;5.70;;;;;;;11.20;59.75;98185.78;5136270;27;20633;-47
2023/01/15 05:44:51;;;;;;;12.10;3.88;;;;;;;11.24;59.94;98196.69;5136218;27;20016;-47
2023/01/15 05:47:17;;;;;;;10.60;5.00;;;;;;;11.25;59.34;98191.22;5134859;27;20030;-47
2023/01/15 05:49:42;;;;;;;9.60;4.15;;;;;;;11.31;59.49;98215.81;5134689;27;20050;-47
2023/01/15 05:52:08;;;;;;;14.07;5.63;;;;;;;11.31;59.45;98224.50;5134772;27;20144;-47
2023/01/15 05:54:34;;;;;;;8.73;4.25;;;;;;;11.30;59.60;98204.50;5136094;27;20542;-46
2023/01/15 05:57:01;;;;;;;9.93;4.53;;;;;;;11.24;59.91;98223.75;5134678;27;20039;-47
2023/01/15 05:59:28;;;;;;;12.93;3.80;;;;;;;11.16;60.44;98229.28;5136002;27;20023;-47
2023/01/15 06:01:55;;;;;;;14.40;5.13;;;;;;;11.11;61.46;98237.81;5135933;27;20553;-47
2023/01/15 06:04:23;;;;;;;14.05;6.35;;;;;;;11.07;61.13;98248.97;5136141;27;20023;-47
2023/01/15 06:06:50;;;;;;;14.55;5.95;;;;;;;11.05;61.25;98241.28;5135736;27;20026;-47
2023/01/15 06:09:17;;;;;;;12.55;5.22;;;;;;;11.16;61.86;98258.16;5135650;27;20064;-47
2023/01/15 06:11:43;;;;;;;16.55;5.97;;;;;;;11.20;61.84;98277.72;5134338;27;20023;-47
2023/01/15 06:14:13;;;;;;;7.68;4.88;;;;;;;11.26;61.46;98253.22;5134374;27;20098;-47
2023/01/15 06:16:39;;;;;;;11.15;5.75;;;;;;;11.32;61.97;98248.94;5134445;27;20019;-47
2023/01/15 06:19:06;;;;;;;10.50;5.35;;;;;;;11.38;61.89;98243.63;5135630;27;20392;-47
2023/01/15 06:21:33;;;;;;;10.75;4.72;;;;;;;11.36;61.50;98218.59;5135290;27;20462;-47
2023/01/15 06:23:59;;;;;;;10.95;5.53;;;;;;;11.28;61.86;98209.16;5135563;27;20369;-47
2023/01/15 06:26:25;;;;;;;12.93;5.78;;;;;;;11.27;61.49;98170.78;5117062;27;20130;-47
2023/01/15 06:28:51;;;;;;;11.13;5.25;;;;;;;11.17;62.25;98208.06;5135381;27;20024;-47
2023/01/15 06:31:20;;;;;;;11.70;5.22;;;;;;;11.14;62.36;98205.03;5134026;27;20019;-47
2023/01/15 06:33:45;;;;;;;13.55;5.65;;;;;;;11.12;62.57;98201.84;5134000;27;20103;-47
2023/01/15 06:36:16;;;;;;;8.82;4.47;;;;;;;11.16;61.82;98176.75;5135236;27;20123;-47
2023/01/15 06:38:43;;;;;;;11.98;4.30;;;;;;;11.14;61.61;98160.41;5133961;27;20031;-47
2023/01/15 06:49:36;;;;;;;12.88;5.25;;;;;;;11.37;60.29;98184.22;5135007;27;20124;-47
2023/01/15 06:52:03;;;;;;;11.43;5.00;;;;;;;11.43;59.91;98206.19;5133928;27;20030;-47
2023/01/15 06:54:29;;;;;;;21.10;7.57;;;;;;;11.53;60.11;98217.00;5134917;27;20023;-47
2023/01/15 06:56:54;;;;;;;10.55;5.63;;;;;;;11.67;58.92;98211.59;5133552;27;20035;-47
2023/01/15 06:59:20;;;;;;;12.23;6.32;;;;;;;11.66;59.02;98204.75;5133524;27;20394;-47
2023/01/15 07:01:46;;;;;;;11.40;6.30;;;;;;;11.72;59.41;98212.56;5134798;27;20377;-47
2023/01/15 07:04:12;;;;;;;9.13;3.55;;;;;;;11.84;58.60;98194.22;5133417;27;20022;-47
2023/01/15 07:06:38;;;;;;;9.70;5.22;;;;;;;11.77;58.63;98199.56;5134673;27;20033;-47
2023/01/15 07:09:04;;;;;;;13.35;7.75;;;;;;;11.72;58.93;98207.28;5134653;27;20023;-47
2023/01/15 07:11:29;;;;;;;18.85;10.82;;;;;;;11.79;59.48;98201.94;5134609;27;20095;-47
2023/01/15 07:14:04;;;;;;;23.02;13.75;;;;;;;11.82;59.20;98203.38;5133255;27;20038;-47
2023/01/15 07:16:36;;;;;;;18.58;12.75;;;;;;;11.80;59.59;98180.72;5134501;27;20036;-47
2023/01/15 07:19:03;;;;;;;25.23;18.10;;;;;;;11.84;58.81;98175.81;5134480;27;20034;-47
2023/01/15 07:21:29;;;;;;;11.73;7.45;;;;;;;11.85;58.78;98185.31;5134402;27;20019;-47
2023/01/15 07:23:58;;;;;;;18.27;13.07;;;;;;;11.76;58.98;98189.25;5134311;27;20039;-47
2023/01/15 07:26:24;;;;;;;24.70;16.70;;;;;;;11.68;58.73;98177.22;5132947;27;20042;-47
2023/01/15 07:28:50;;;;;;;15.23;9.23;;;;;;;11.64;59.01;98154.22;5132836;27;20500;-47
2023/01/15 07:31:16;;;;;;;15.93;10.13;;;;;;;11.74;58.90;98178.16;5132850;27;20030;-47
2023/01/15 07:33:41;;;;;;;23.17;11.60;;;;;;;11.75;58.31;98156.94;5134433;27;20020;-47
2023/01/15 07:36:07;;;;;;;18.67;10.88;;;;;;;11.71;58.07;98158.38;5134114;27;20019;-46
2023/01/15 07:38:33;;;;;;;15.43;11.10;;;;;;;11.63;58.95;98166.56;5134047;27;20060;-47
2023/01/15 07:51:57;;;;;;;17.37;5.80;;;;;;;11.75;57.93;98179.75;5134112;27;20042;-47
2023/01/15 07:54:22;;;;;;;11.50;5.15;;;;;;;11.79;57.71;98181.75;5132349;27;20019;-47
2023/01/15 07:56:50;;;;;;;12.32;7.47;;;;;;;11.86;57.81;98172.97;5133691;27;20401;-47
2023/01/15 07:59:16;;;;;;;21.70;8.07;;;;;;;11.90;57.73;98185.47;5132277;27;20479;-47
2023/01/15 08:01:41;;;;;;;9.65;4.43;;;;;;;12.04;56.92;98195.84;5132218;27;20105;-47
2023/01/15 08:04:08;;;;;;;8.23;4.47;;;;;;;12.01;56.63;98186.56;5133394;27;20027;-47
2023/01/15 08:06:35;;;;;;;8.75;4.75;;;;;;;12.05;57.18;98192.97;5133474;27;20411;-46
2023/01/15 08:09:00;;;;;;;10.40;4.88;;;;;;;12.04;56.43;98185.34;5133380;27;20029;-47
2023/01/15 08:16:54;;;;;;;16.83;5.65;;;;;;;11.99;59.27;98372.69;5133440;27;20060;-46
2023/01/15 08:19:19;;;;;;;8.43;4.13;;;;;;;12.71;58.05;98369.50;5133243;27;20496;-46
2023/01/15 08:21:45;;;;;;;10.73;4.53;;;;;;;13.24;56.89;98374.06;5133010;27;20398;-46
2023/01/15 08:24:11;;;;;;;16.23;4.85;;;;;;;13.71;55.64;98397.91;5132024;27;20492;-46
2023/01/15 08:26:36;;;;;;;11.27;3.70;;;;;;;14.21;54.31;98390.59;5166537;27;20031;-46
2023/01/15 08:29:02;;;;;;;11.43;5.57;;;;;;;14.69;52.90;98406.16;5133073;27;20064;-46
2023/01/15 08:31:28;;;;;;;12.02;4.25;;;;;;;14.97;52.59;98415.13;5133062;27;20465;-46
2023/01/15 08:33:54;;;;;;;18.05;3.42;;;;;;;14.95;53.01;98427.75;5133147;27;20051;-47
2023/01/15 08:36:19;;;;;;;14.40;4.80;;;;;;;14.81;53.34;98434.34;5132967;27;20480;-46
2023/01/15 08:38:48;;;;;;;25.10;22.52;;;;;;;14.75;55.39;98454.59;5133028;27;20064;-46
2023/01/15 08:41:13;;;;;;;29.52;19.98;;;;;;;14.71;57.04;98458.75;5114592;27;20450;-47
2023/01/15 08:43:39;;;;;;;19.10;11.00;;;;;;;14.41;58.13;98493.16;5132983;27;20019;-47
2023/01/15 08:46:05;;;;;;;8.98;7.30;;;;;;;14.11;60.59;98500.16;5132962;27;20023;-46
2023/01/15 08:48:32;;;;;;;16.17;14.40;;;;;;;13.77;62.98;98501.69;5131591;27;20023;-46
2023/01/15 08:50:57;;;;;;;12.35;5.65;;;;;;;13.46;64.18;98529.91;5131520;27;20023;-46
2023/01/15 08:53:23;;;;;;;26.00;6.72;;;;;;;12.97;66.22;98552.75;5132828;27;20103;-46
2023/01/15 08:55:50;;;;;;;11.27;3.22;;;;;;;12.67;68.86;98547.38;5132830;27;20038;-46
2023/01/15 08:58:16;;;;;;;7.15;3.25;;;;;;;12.41;70.14;98553.66;5131556;28;20023;-45
2023/01/15 09:00:42;;;;;;;6.90;3.03;;;;;;;12.22;71.79;98569.41;5131397;28;20023;-46
2023/01/15 09:03:08;;;;;;;9.18;2.88;;;;;;;12.16;72.79;98573.69;5132755;27;20030;-46
2023/01/15 09:05:36;;;;;;;9.90;3.50;;;;;;;12.03;73.65;98562.44;5131598;28;20039;-45
2023/01/15 09:08:03;;;;;;;6.18;1.80;;;;;;;11.80;74.71;98580.34;5132715;27;20030;-45
2023/01/15 09:10:28;;;;;;;6.32;2.20;;;;;;;11.62;76.64;98593.38;5131264;28;20015;-45
2023/01/15 09:12:54;;;;;;;14.65;3.40;;;;;;;11.55;77.86;98595.22;5131279;28;20527;-45
2023/01/15 09:15:19;;;;;;;10.05;3.08;;;;;;;11.49;78.69;98604.78;5167148;27;20505;-45
2023/01/15 09:17:45;;;;;;;8.32;2.50;;;;;;;11.38;79.38;98614.09;5136837;27;20450;-46
2023/01/15 09:20:13;;;;;;;8.30;1.65;;;;;;;11.37;80.53;98615.13;5136785;27;20023;-46
2023/01/15 09:22:38;;;;;;;24.23;10.52;;;;;;;11.32;81.64;98614.13;5135143;27;20412;-46
2023/01/15 09:25:05;;;;;;;8.93;4.20;;;;;;;11.33;82.55;98626.25;5135694;27;20031;-46
2023/01/15 09:27:32;;;;;;;47.40;29.98;;;;;;;11.32;83.51;98619.38;5136588;27;20022;-46
2023/01/15 09:29:58;;;;;;;14.30;10.90;;;;;;;11.40;85.37;98622.56;5136757;27;20019;-46
2023/01/15 09:32:24;;;;;;;20.33;4.57;;;;;;;11.48;86.90;98623.38;5136459;27;20507;-46
2023/01/15 09:34:50;;;;;;;4.15;1.02;;;;;;;11.20;85.09;98632.31;5169863;27;20495;-46
2023/01/15 09:37:16;;;;;;;5.78;1.10;;;;;;;10.70;85.89;98639.84;5135067;27;20027;-46
2023/01/15 09:39:41;;;;;;;2.05;0.90;;;;;;;10.54;86.77;98643.69;5169862;27;20034;-46
2023/01/15 09:42:29;;;;;;;10.57;2.08;;;;;;;10.53;88.37;98642.88;5136270;27;20492;-45
2023/01/15 09:45:10;;;;;;;16.42;11.65;;;;;;;10.85;89.96;98650.16;5136591;27;20047;-45
2023/01/15 09:47:51;;;;;;;22.38;12.68;;;;;;;11.16;90.37;98646.88;5136239;27;20404;-45
2023/01/15 09:50:37;;;;;;;9.93;2.15;;;;;;;11.16;89.71;98668.69;5134815;27;20481;-45
2023/01/15 09:53:05;;;;;;;;;;;;;;;11.25;91.12;98674.56;5136635;27;20023;-45
2023/01/15 09:55:35;;;;;;;11.48;4.07;;;;;;;11.26;91.23;98670.13;5136016;27;19914;-46
2023/01/15 09:58:05;;;;;;;11.85;5.65;;;;;;;11.34;92.20;98672.53;5118119;27;20034;-45
2023/01/15 10:00:47;;;;;;;8.50;3.00;;;;;;;11.46;92.36;98667.44;5135937;27;20027;-46
2023/01/15 10:03:19;;;;;;;6.50;2.30;;;;;;;11.50;92.41;98671.28;5136237;27;20051;-45
2023/01/15 10:06:07;;;;;;;6.45;1.90;;;;;;;11.42;91.94;98671.50;5135951;27;20042;-46
2023/01/15 10:08:43;;;;;;;16.02;2.75;;;;;;;11.34;92.80;98677.78;5134563;27;20031;-46
2023/01/15 10:11:14;;;;;;;;;;;;;;;11.32;93.64;98671.91;5136325;27;20031;-46
2023/01/15 10:14:00;;;;;;;22.52;5.78;;;;;;;11.36;94.45;98673.13;5136016;27;19911;-46
2023/01/15 10:16:28;;;;;;;;;;;;;;;11.51;95.28;98678.13;5134790;27;20023;-46
2023/01/15 10:18:57;;;;;;;40.58;25.83;;;;;;;11.64;95.79;98680.72;5134308;27;19907;-46
2023/01/15 10:21:25;;;;;;;44.28;36.67;;;;;;;11.59;95.22;98680.56;5135543;27;20031;-46
2023/01/15 10:24:04;;;;;;;42.38;28.85;;;;;;;11.52;95.38;98687.63;5133980;27;20054;-46
2023/01/15 10:26:55;;;;;;;56.88;46.63;;;;;;;11.51;95.43;98678.97;5135386;27;20065;-46
2023/01/15 10:29:44;;;;;;;20.00;10.25;;;;;;;11.59;95.08;98697.13;5134113;27;20023;-45
2023/01/15 10:32:12;;;;;;;29.10;19.95;;;;;;;11.62;94.62;98708.25;5135450;27;20489;-46
2023/01/15 10:35:05;;;;;;;48.90;39.20;;;;;;;11.58;94.45;98707.84;5135283;27;20118;-45
2023/01/15 10:37:47;;;;;;;57.63;47.80;;;;;;;11.42;93.32;98709.09;5135345;27;20025;-46
2023/01/15 10:40:22;;;;;;;17.98;11.80;;;;;;;11.27;92.58;98711.13;5135306;27;20049;-46
2023/01/15 10:42:50;;;;;;;103.35;88.85;;;;;;;11.22;93.74;98724.88;5135415;27;20023;-46
2023/01/15 10:45:26;;;;;;;17.63;10.88;;;;;;;11.29;93.12;98733.56;5135150;27;20030;-45
2023/01/15 10:47:59;;;;;;;48.10;38.47;;;;;;;11.32;93.28;98735.78;5135024;27;20094;-45
2023/01/15 10:50:26;;;;;;;130.15;117.05;;;;;;;11.37;93.08;98748.31;5134946;27;20114;-46
2023/01/15 10:53:18;;;;;;;58.78;38.58;;;;;;;11.31;93.49;98747.31;5134959;27;20468;-46
2023/01/15 10:55:51;;;;;;;40.45;34.15;;;;;;;11.33;93.84;98737.41;5134957;27;20024;-46
2023/01/15 10:58:41;;;;;;;18.60;14.50;;;;;;;11.30;93.68;98740.44;5133585;27;20023;-46
2023/01/15 11:01:15;;;;;;;18.33;14.73;;;;;;;11.21;93.36;98739.03;5134857;27;20095;-46
2023/01/15 11:03:43;;;;;;;18.38;14.30;;;;;;;11.23;93.41;98742.25;5134829;27;20038;-46
2023/01/15 11:06:20;;;;;;;20.05;5.63;;;;;;;11.17;92.92;98745.69;5134604;27;20020;-46
2023/01/15 11:08:54;;;;;;;15.60;7.00;;;;;;;10.98;92.23;98740.22;5116190;27;20019;-46
2023/01/15 11:19:40;;;;;;;13.48;7.53;;;;;;;10.35;89.62;98758.09;5134546;27;20400;-45
2023/01/15 11:22:18;;;;;;;7.10;4.43;;;;;;;10.04;87.50;98772.47;5134088;27;20130;-45
2023/01/15 11:24:52;;;;;;;18.08;11.10;;;;;;;9.56;88.42;98788.91;5134361;27;20035;-46
2023/01/15 11:27:23;;;;;;;5.30;1.45;;;;;;;9.28;89.13;98790.72;5134315;27;20015;-46
2023/01/15 11:30:00;;;;;;;32.38;18.48;;;;;;;8.90;89.61;98811.94;5134185;27;20035;-46
2023/01/15 11:32:30;;;;;;;10.48;4.70;;;;;;;8.76;91.41;98816.22;5133055;27;20088;-46
2023/01/15 11:34:59;;;;;;;22.63;5.93;;;;;;;8.77;92.87;98820.44;5134213;27;20507;-46
2023/01/15 11:37:26;;;;;;;19.95;6.03;;;;;;;8.83;93.72;98816.28;5132503;27;20051;-46
2023/01/15 11:40:07;;;;;;;20.45;10.50;;;;;;;8.85;94.62;98807.22;5133826;27;20512;-46
2023/01/15 11:51:09;;;;;;;7.25;1.35;;;;;;;9.04;97.02;98784.88;5133791;27;20033;-45
2023/01/15 11:53:45;;;;;;;7.15;1.10;;;;;;;8.82;95.99;98770.97;5133780;27;20027;-45
2023/01/15 11:56:12;;;;;;;;;;;;;;;8.79;97.51;98761.69;5134225;27;20490;-45
2023/01/15 11:58:54;;;;;;;13.90;2.00;;;;;;;8.76;97.60;98756.81;5133705;27;20056;-46
2023/01/15 12:01:41;;;;;;;5.07;1.45;;;;;;;8.79;97.61;98748.63;5133703;27;20027;-45
2023/01/15 12:04:23;;;;;;;7.20;1.08;;;;;;;8.84;97.68;98747.25;5133664;27;20114;-45
2023/01/15 12:06:49;;;;;;;1.40;0.73;;;;;;;8.62;95.61;98743.81;5133585;27;20106;-45
2023/01/15 12:09:48;;;;;;;6.63;1.02;;;;;;;8.29;94.71;98746.84;5133429;27;20114;-45
2023/01/15 12:12:39;;;;;;;5.70;2.35;;;;;;;8.16;95.25;98742.28;5133364;27;20050;-45
2023/01/15 12:15:16;;;;;;;6.28;1.98;;;;;;;8.06;95.02;98737.31;5133437;27;20118;-45
2023/01/15 12:18:18;;;;;;;3.70;1.00;;;;;;;8.12;95.82;98728.75;5133698;27;20432;-45
2023/01/15 12:21:03;;;;;;;5.05;1.35;;;;;;;8.22;94.94;98723.25;5133512;27;20076;-44
2023/01/15 12:23:56;;;;;;;4.72;1.58;;;;;;;8.11;89.37;98713.25;5133072;27;20047;-45
2023/01/15 12:26:37;;;;;;;10.02;3.08;;;;;;;8.25;89.98;98715.03;5133241;27;20028;-45
2023/01/15 12:29:18;;;;;;;4.90;2.30;;;;;;;8.25;89.17;98716.81;5133132;27;20137;-45
2023/01/15 12:31:54;;;;;;;3.35;1.40;;;;;;;8.40;90.31;98715.00;5131863;27;20110;-45
2023/01/15 12:34:26;;;;;;;15.55;2.78;;;;;;;8.73;88.13;98707.50;5131873;27;20087;-45